Time;durP1;ratioP1;P1;durP2;ratioP2;P2;SDS_P1;SDS_P2;PMS_P1;PMS_P2;Temp;Humidity;BMP_temperature;BMP_pressure;BME280_temperature;BME280_humidity;BME280_pressure;Samples;Min_cycle;Max_cycle;Signal;HPM_P1;HPM_P2
2023/10/17 01:26:37;;;;;;;0.10;0.10;;;;;;;;;;6255266;22;20020;-91
2023/10/17 01:29:04;;;;;;;0.10;0.10;;;6.10;99.90;;;;;;6230298;23;20051;-90
2023/10/17 01:31:31;;;;;;;0.10;0.10;;;;;;;;;;6217824;23;20004;-91
2023/10/17 01:34:02;;;;;;;0.10;0.10;;;;;;;;;;6197551;23;20024;-91
2023/10/17 01:36:28;;;;;;;0.10;0.10;;;;;;;;;;6199773;23;20028;-91
2023/10/17 01:38:54;;;;;;;0.10;0.10;;;;;;;;;;6199981;23;20338;-91
2023/10/17 01:41:20;;;;;;;0.10;0.10;;;;;;;;;;6198073;23;20004;-91
2023/10/17 01:43:47;;;;;;;0.10;0.10;;;6.30;99.90;;;;;;6199977;23;20032;-91
2023/10/17 01:46:21;;;;;;;0.10;0.10;;;6.30;99.90;;;;;;6197073;23;20031;-91
2023/10/17 01:48:48;;;;;;;0.10;0.10;;;6.40;99.90;;;;;;6198903;23;20069;-90
2023/10/17 01:51:14;;;;;;;0.10;0.10;;;;;;;;;;6198867;23;20071;-91
2023/10/17 01:53:40;;;;;;;0.10;0.10;;;;;;;;;;6199466;23;20056;-91
2023/10/17 01:56:13;;;;;;;0.10;0.10;;;;;;;;;;6198653;23;20268;-92
2023/10/17 01:58:50;;;;;;;0.10;0.10;;;6.40;99.90;;;;;;6199740;23;20001;-90
2023/10/17 02:01:29;;;;;;;0.10;0.10;;;6.30;99.90;;;;;;6198449;23;20032;-91
2023/10/17 02:04:03;;;;;;;0.10;0.10;;;6.20;99.90;;;;;;6197193;23;20005;-91
2023/10/17 02:06:30;;;;;;;0.10;0.10;;;;;;;;;;6198675;23;20008;-90
2023/10/17 02:08:58;;;;;;;0.10;0.10;;;;;;;;;;6198332;23;20005;-91
2023/10/17 02:11:24;;;;;;;0.10;0.10;;;;;;;;;;6198257;23;20000;-90
2023/10/17 02:13:53;;;;;;;0.10;0.10;;;6.20;99.90;;;;;;6198547;23;20032;-91
2023/10/17 02:16:19;;;;;;;0.10;0.10;;;;;;;;;;6196287;23;20009;-90
2023/10/17 02:18:45;;;;;;;0.10;0.10;;;;;;;;;;6198121;23;19997;-86
2023/10/17 02:21:12;;;;;;;0.10;0.10;;;;;;;;;;6199047;23;20001;-90
2023/10/17 02:23:40;;;;;;;0.10;0.10;;;;;;;;;;6197994;23;20035;-90
2023/10/17 02:26:12;;;;;;;0.10;0.10;;;5.80;99.90;;;;;;6198147;23;20012;-90
2023/10/17 02:28:44;;;;;;;0.10;0.10;;;;;;;;;;6198971;23;20078;-90
2023/10/17 02:31:15;;;;;;;0.10;0.10;;;5.70;99.90;;;;;;6198242;23;20004;-91
2023/10/17 02:33:42;;;;;;;0.10;0.10;;;;;;;;;;6198180;23;20055;-91
2023/10/17 02:36:12;;;;;;;0.10;0.10;;;5.90;99.90;;;;;;6197560;23;20011;-91
2023/10/17 02:38:38;;;;;;;0.10;0.10;;;;;;;;;;6199022;23;20065;-92
2023/10/17 02:41:06;;;;;;;0.10;0.10;;;;;;;;;;6198402;23;20009;-91
2023/10/17 02:43:37;;;;;;;0.10;0.10;;;;;;;;;;6198537;23;20396;-88
2023/10/17 02:46:04;;;;;;;0.10;0.10;;;;;;;;;;6197300;23;20004;-91
2023/10/17 02:48:37;;;;;;;0.10;0.10;;;;;;;;;;6197052;23;20005;-91
2023/10/17 02:51:03;;;;;;;0.10;0.10;;;;;;;;;;6197544;23;20012;-90
2023/10/17 02:53:31;;;;;;;0.10;0.10;;;;;;;;;;6197464;23;20012;-91
2023/10/17 02:55:57;;;;;;;0.10;0.10;;;;;;;;;;6198180;23;20000;-91
2023/10/17 02:58:23;;;;;;;0.10;0.10;;;;;;;;;;6198544;23;20498;-91
2023/10/17 03:00:50;;;;;;;0.00;0.00;;;;;;;;;;6197919;23;20016;-90
2023/10/17 03:03:19;;;;;;;0.10;0.10;;;;;;;;;;6197167;23;20009;-90
2023/10/17 03:05:50;;;;;;;0.10;0.10;;;;;;;;;;6197771;23;20031;-91
2023/10/17 03:08:17;;;;;;;0.10;0.10;;;;;;;;;;6198710;23;20005;-91
2023/10/17 03:10:43;;;;;;;0.10;0.10;;;;;;;;;;6199117;23;20041;-91
2023/10/17 03:13:53;;;;;;;0.10;0.10;;;6.40;99.90;;;;;;6198576;23;20008;-92
2023/10/17 03:16:13;;;;;;;0.10;0.10;;;;;;;;;;6215808;23;20048;-91
2023/10/17 03:18:39;;;;;;;0.10;0.10;;;;;;;;;;6197090;23;20004;-91
2023/10/17 03:21:08;;;;;;;0.10;0.10;;;;;;;;;;6198138;23;20036;-92
2023/10/17 03:23:34;;;;;;;0.10;0.10;;;;;;;;;;6197958;23;20016;-91
2023/10/17 03:26:01;;;;;;;0.10;0.10;;;;;;;;;;6197615;23;20465;-91
2023/10/17 03:28:33;;;;;;;0.10;0.10;;;6.20;99.90;;;;;;6197537;23;20020;-92
2023/10/17 03:30:59;;;;;;;0.10;0.10;;;;;;;;;;6197000;23;20062;-90
2023/10/17 03:33:29;;;;;;;0.10;0.10;;;;;;;;;;6196940;23;20001;-91
2023/10/17 03:38:27;;;;;;;0.10;0.10;;;6.40;99.90;;;;;;6224452;23;20005;-92
2023/10/17 03:41:02;;;;;;;0.10;0.10;;;6.40;99.90;;;;;;6197150;23;20515;-89
2023/10/17 03:43:38;;;;;;;0.10;0.10;;;;;;;;;;6198681;23;20005;-91
2023/10/17 03:46:05;;;;;;;0.10;0.10;;;6.40;99.90;;;;;;6197460;23;20005;-90
2023/10/17 03:48:36;;;;;;;0.10;0.10;;;6.60;99.90;;;;;;6196847;23;20416;-91
2023/10/17 03:53:41;;;;;;;0.10;0.10;;;;;;;;;;6235434;23;20039;-90
2023/10/17 03:56:11;;;;;;;0.10;0.10;;;;;;;;;;6197942;23;19996;-91
2023/10/17 03:58:54;;;;;;;0.10;0.10;;;;;;;;;;6198378;23;20001;-91
2023/10/17 04:01:23;;;;;;;0.10;0.10;;;;;;;;;;6194865;23;20034;-91
2023/10/17 04:03:53;;;;;;;0.10;0.10;;;;;;;;;;6197074;23;20000;-91
2023/10/17 04:06:34;;;;;;;0.10;0.10;;;;;;;;;;6197043;23;20019;-91
2023/10/17 04:11:46;;;;;;;0.10;0.10;;;;;;;;;;6223126;23;20012;-91
2023/10/17 04:14:13;;;;;;;0.10;0.10;;;;;;;;;;6196888;23;19997;-92
2023/10/17 04:16:39;;;;;;;0.10;0.10;;;;;;;;;;6197180;23;20004;-90
2023/10/17 04:19:07;;;;;;;0.10;0.10;;;;;;;;;;6196715;23;20437;-91
2023/10/17 04:21:38;;;;;;;0.10;0.10;;;;;;;;;;6196465;23;20008;-91
2023/10/17 04:24:09;;;;;;;0.10;0.10;;;;;;;;;;6197736;23;20027;-91
2023/10/17 04:26:35;;;;;;;0.10;0.10;;;;;;;;;;6196643;23;20032;-90
2023/10/17 04:29:11;;;;;;;0.10;0.10;;;6.90;99.90;;;;;;6196703;23;20008;-89
2023/10/17 04:31:43;;;;;;;0.10;0.10;;;6.80;99.90;;;;;;6196961;23;20036;-91
2023/10/17 04:34:14;;;;;;;0.10;0.10;;;;;;;;;;6195704;23;20009;-91
2023/10/17 04:36:41;;;;;;;0.10;0.10;;;6.80;99.90;;;;;;6197928;23;20000;-91
2023/10/17 04:39:12;;;;;;;0.10;0.10;;;6.80;99.90;;;;;;6197093;23;20001;-91
2023/10/17 04:44:36;;;;;;;0.10;0.10;;;6.80;99.90;;;;;;6233346;23;20104;-91
2023/10/17 04:49:31;;;;;;;0.10;0.10;;;6.90;99.90;;;;;;6223955;23;20023;-89
2023/10/17 04:57:04;;;;;;;0.10;0.10;;;;;;;;;;6234886;23;20005;-90
2023/10/17 06:18:58;;;;;;;0.10;0.10;;;;;;;;;;6223099;23;20039;-91
2023/10/17 06:21:38;;;;;;;0.10;0.10;;;;;;;;;;6195335;23;20005;-91
2023/10/17 06:24:42;;;;;;;0.10;0.10;;;;;;;;;;6196389;23;20004;-90
2023/10/17 06:26:59;;;;;;;0.10;0.10;;;;;;;;;;6223300;23;20021;-91
2023/10/17 06:31:57;;;;;;;0.10;0.10;;;;;;;;;;6223345;23;20009;-91
2023/10/17 06:34:23;;;;;;;0.10;0.10;;;;;;;;;;6198386;23;20000;-90
2023/10/17 06:36:59;;;;;;;0.10;0.10;;;6.70;99.90;;;;;;6211409;23;20075;-90
2023/10/17 06:39:36;;;;;;;0.10;0.10;;;;;;;;;;6214574;23;20012;-89
2023/10/17 06:42:15;;;;;;;0.10;0.10;;;;;;;;;;6198604;23;20005;-90
2023/10/17 06:44:54;;;;;;;0.10;0.10;;;7.00;99.90;;;;;;6198506;23;20028;-90
2023/10/17 06:47:41;;;;;;;0.10;0.10;;;7.00;99.90;;;;;;6199883;23;20015;-90
2023/10/17 06:52:46;;;;;;;0.10;0.10;;;;;;;;;;6223638;23;20004;-91
2023/10/17 06:55:21;;;;;;;0.10;0.10;;;;;;;;;;6198173;23;20005;-89
2023/10/17 06:57:50;;;;;;;0.10;0.10;;;;;;;;;;6197508;23;19996;-89
2023/10/17 07:00:18;;;;;;;0.10;0.10;;;;;;;;;;6198005;23;20011;-92
2023/10/17 07:02:48;;;;;;;0.10;0.10;;;;;;;;;;6197894;23;20007;-92
2023/10/17 07:05:22;;;;;;;;;;;7.20;99.90;;;;;;6197187;23;20087;-88
2023/10/17 07:07:54;;;;;;;0.10;0.10;;;;;;;;;;6196905;23;19906;-90
2023/10/17 07:13:27;;;;;;;0.10;0.10;;;7.30;99.90;;;;;;6224357;23;20012;-89
2023/10/17 07:15:54;;;;;;;0.10;0.10;;;7.40;99.90;;;;;;6197439;23;20000;-91
2023/10/17 07:21:15;;;;;;;0.10;0.10;;;;;;;;;;6225626;23;20020;-90
2023/10/17 07:23:42;;;;;;;0.10;0.10;;;;;;;;;;6198270;23;20100;-91
2023/10/17 07:26:17;;;;;;;0.10;0.10;;;;;;;;;;6198770;23;20012;-91
2023/10/17 07:28:44;;;;;;;0.10;0.10;;;7.60;99.90;;;;;;6199573;23;20001;-90
2023/10/17 07:31:13;;;;;;;0.10;0.10;;;;;;;;;;6198225;23;20012;-88
2023/10/17 07:33:44;;;;;;;0.10;0.10;;;7.60;99.90;;;;;;6197405;23;20005;-91
2023/10/17 07:36:15;;;;;;;0.10;0.10;;;;;;;;;;6199096;23;20008;-92
2023/10/17 07:38:43;;;;;;;0.10;0.10;;;;;;;;;;6199769;23;20004;-92
2023/10/17 07:41:13;;;;;;;0.10;0.10;;;8.00;99.90;;;;;;6200159;23;20418;-91
2023/10/17 07:43:44;;;;;;;0.10;0.10;;;;;;;;;;6198283;23;20063;-90
2023/10/17 07:46:26;;;;;;;0.10;0.10;;;8.10;99.90;;;;;;6199579;23;20035;-91
2023/10/17 07:48:52;;;;;;;0.10;0.10;;;;;;;;;;6199164;23;20031;-91
2023/10/17 07:51:18;;;;;;;0.10;0.10;;;;;;;;;;6199104;23;20008;-90
2023/10/17 07:53:47;;;;;;;0.10;0.10;;;;;;;;;;6197811;23;20000;-89
2023/10/17 07:56:21;;;;;;;0.10;0.10;;;8.20;99.90;;;;;;6199509;23;20001;-90
2023/10/17 07:58:56;;;;;;;0.10;0.10;;;8.40;99.90;;;;;;6199253;23;20011;-88
2023/10/17 08:01:31;;;;;;;0.10;0.10;;;;;;;;;;6198799;23;20008;-91
2023/10/17 08:03:57;;;;;;;0.10;0.10;;;;;;;;;;6201269;23;20001;-89
2023/10/17 08:06:29;;;;;;;0.10;0.10;;;;;;;;;;6200598;23;20031;-89
2023/10/17 08:08:56;;;;;;;0.10;0.10;;;;;;;;;;6199468;23;20497;-90
2023/10/17 08:11:31;;;;;;;0.10;0.10;;;;;;;;;;6199224;23;20012;-90
2023/10/17 08:14:06;;;;;;;0.10;0.10;;;8.60;99.90;;;;;;6199841;23;20031;-91
2023/10/17 08:16:32;;;;;;;0.10;0.10;;;;;;;;;;6199128;23;20000;-91
2023/10/17 08:19:12;;;;;;;0.05;0.05;;;;;;;;;;6197418;23;20023;-90
2023/10/17 08:21:48;;;;;;;0.10;0.10;;;;;;;;;;6198273;23;20011;-91
2023/10/17 08:24:15;;;;;;;0.10;0.10;;;;;;;;;;6199379;23;20004;-91
2023/10/17 08:26:42;;;;;;;0.10;0.10;;;;;;;;;;6198159;23;20043;-91
2023/10/17 08:29:08;;;;;;;0.10;0.10;;;;;;;;;;6198182;23;20088;-88
2023/10/17 08:31:44;;;;;;;0.00;0.00;;;;;;;;;;6199669;23;20012;-91
2023/10/17 08:34:15;;;;;;;0.00;0.00;;;;;;;;;;6198997;23;20039;-89
2023/10/17 08:39:26;;;;;;;0.00;0.00;;;;;;;;;;6226158;23;20013;-88
2023/10/17 08:42:05;;;;;;;0.00;0.00;;;;;;;;;;6199132;23;20217;-90
2023/10/17 08:44:35;;;;;;;0.10;0.10;;;9.40;99.90;;;;;;6198920;23;20004;-90
2023/10/17 08:47:04;;;;;;;0.10;0.10;;;9.50;99.90;;;;;;6199657;23;20008;-88
2023/10/17 08:49:31;;;;;;;0.00;0.00;;;;;;;;;;6199469;23;20009;-91
2023/10/17 08:52:00;;;;;;;0.10;0.10;;;9.40;99.90;;;;;;6200374;23;20019;-92
2023/10/17 08:54:29;;;;;;;0.10;0.10;;;;;;;;;;6200754;23;20543;-90
2023/10/17 08:56:59;;;;;;;0.00;0.00;;;;;;;;;;6199978;23;20056;-91
2023/10/17 09:02:28;;;;;;;0.00;0.00;;;9.70;99.90;;;;;;6233975;23;20012;-91
2023/10/17 09:05:25;;;;;;;0.10;0.10;;;9.70;99.90;;;;;;6200959;23;20004;-92
2023/10/17 09:07:55;;;;;;;0.00;0.00;;;;;;;;;;6201737;23;20011;-91
2023/10/17 09:10:30;;;;;;;;;;;9.70;99.90;;;;;;6201130;23;20005;-91
2023/10/17 09:15:50;;;;;;;0.00;0.00;;;9.80;99.90;;;;;;6238159;23;20344;-91
2023/10/17 09:18:28;;;;;;;0.10;0.10;;;9.70;99.90;;;;;;6201391;23;20008;-89
2023/10/17 09:20:57;;;;;;;0.08;0.08;;;9.80;99.90;;;;;;6200705;23;20012;-90
2023/10/17 09:23:28;;;;;;;0.10;0.10;;;9.80;99.90;;;;;;6201812;23;20011;-90
2023/10/17 09:26:07;;;;;;;0.00;0.00;;;9.70;99.90;;;;;;6201947;23;20051;-90
2023/10/17 09:28:33;;;;;;;0.10;0.10;;;;;;;;;;6201376;23;20001;-91
2023/10/17 09:31:03;;;;;;;0.00;0.00;;;9.60;99.90;;;;;;6200700;23;20031;-91
2023/10/17 09:33:32;;;;;;;;;;;9.50;99.90;;;;;;6200763;23;20001;-90
2023/10/17 09:35:59;;;;;;;0.05;0.05;;;9.80;99.90;;;;;;6200907;23;19912;-91
2023/10/17 09:38:26;;;;;;;0.00;0.00;;;9.90;99.90;;;;;;6202951;23;20005;-91
2023/10/17 09:40:55;;;;;;;0.00;0.00;;;10.00;99.90;;;;;;6203500;23;20008;-89
2023/10/17 09:43:21;;;;;;;0.10;0.10;;;;;;;;;;6201769;23;20005;-89
2023/10/17 09:45:52;;;;;;;0.10;0.10;;;10.00;99.90;;;;;;6201945;23;20092;-89
2023/10/17 09:48:34;;;;;;;0.00;0.00;;;10.10;99.90;;;;;;6202151;23;20004;-91
2023/10/17 09:51:01;;;;;;;0.00;0.00;;;10.20;99.90;;;;;;6202376;23;20009;-91
2023/10/17 09:53:31;;;;;;;0.10;0.10;;;10.20;99.90;;;;;;6201110;23;20001;-91
2023/10/17 09:56:12;;;;;;;0.00;0.00;;;10.10;99.90;;;;;;6201093;23;20011;-91
2023/10/17 09:58:41;;;;;;;0.10;0.10;;;9.90;99.90;;;;;;6201407;23;20001;-89
2023/10/17 10:01:14;;;;;;;0.10;0.10;;;10.10;99.90;;;;;;6202418;23;20035;-91
2023/10/17 10:03:41;;;;;;;0.00;0.00;;;10.10;99.90;;;;;;6201161;23;20092;-90
2023/10/17 10:06:30;;;;;;;0.10;0.10;;;10.40;99.90;;;;;;6201573;23;20377;-91
2023/10/17 10:09:17;;;;;;;0.10;0.10;;;10.40;99.90;;;;;;6201965;23;20009;-92
2023/10/17 10:11:48;;;;;;;0.00;0.00;;;10.40;99.90;;;;;;6200764;23;20008;-91
2023/10/17 10:14:15;;;;;;;0.00;0.00;;;10.50;99.90;;;;;;6203240;23;20047;-90
2023/10/17 10:16:55;;;;;;;0.00;0.00;;;10.50;99.90;;;;;;6200917;23;20005;-90
2023/10/17 10:19:21;;;;;;;0.08;0.08;;;10.40;99.90;;;;;;6200525;23;20008;-92
2023/10/17 10:21:55;;;;;;;0.00;0.00;;;10.40;99.90;;;;;;6200658;23;20004;-91
2023/10/17 10:24:26;;;;;;;0.00;0.00;;;10.30;99.90;;;;;;6198778;23;20072;-90
2023/10/17 10:27:10;;;;;;;0.00;0.00;;;10.40;99.90;;;;;;6199403;23;20073;-91
2023/10/17 10:29:36;;;;;;;0.10;0.10;;;;;;;;;;6199765;23;20004;-90
2023/10/17 10:32:06;;;;;;;0.00;0.00;;;;;;;;;;6201536;23;20012;-92
2023/10/17 10:34:37;;;;;;;0.00;0.00;;;;;;;;;;6203051;23;20027;-91
2023/10/17 10:37:03;;;;;;;0.00;0.00;;;11.20;99.90;;;;;;6202644;23;20354;-91
2023/10/17 10:39:30;;;;;;;0.00;0.00;;;11.30;99.90;;;;;;6202488;23;20039;-90
2023/10/17 10:42:06;;;;;;;0.00;0.00;;;11.50;99.90;;;;;;6202901;23;20027;-91
2023/10/17 10:44:42;;;;;;;0.00;0.00;;;11.70;99.90;;;;;;6202054;23;20052;-93
2023/10/17 10:47:08;;;;;;;0.00;0.00;;;;;;;;;;6205598;23;20013;-89
2023/10/17 10:49:34;;;;;;;0.00;0.00;;;;;;;;;;6216842;23;20010;-88
2023/10/17 10:52:00;;;;;;;0.00;0.00;;;;;;;;;;6215583;23;20047;-90
2023/10/17 10:54:50;;;;;;;0.00;0.00;;;11.90;99.90;;;;;;6199819;23;20042;-91
2023/10/17 10:57:29;;;;;;;0.00;0.00;;;11.80;99.90;;;;;;6202372;23;20005;-90
2023/10/17 10:59:55;;;;;;;0.00;0.00;;;;;;;;;;6202674;23;20441;-91
2023/10/17 11:02:21;;;;;;;0.00;0.00;;;;;;;;;;6201731;23;20008;-90
2023/10/17 11:04:50;;;;;;;0.00;0.00;;;;;;;;;;6201502;23;20008;-91
2023/10/17 11:07:23;;;;;;;0.00;0.00;;;11.70;99.90;;;;;;6202389;23;20005;-92
2023/10/17 11:10:06;;;;;;;0.00;0.00;;;11.70;99.90;;;;;;6201963;23;20007;-91
2023/10/17 11:12:33;;;;;;;0.00;0.00;;;;;;;;;;6201849;23;20008;-91
2023/10/17 11:15:14;;;;;;;0.00;0.00;;;11.90;99.90;;;;;;6202373;23;20024;-90
2023/10/17 11:17:41;;;;;;;0.00;0.00;;;12.10;99.90;;;;;;6202143;23;20032;-92
2023/10/17 11:20:14;;;;;;;0.00;0.00;;;12.20;99.90;;;;;;6201924;23;20004;-91
2023/10/17 11:22:41;;;;;;;0.00;0.00;;;12.30;99.90;;;;;;6200976;23;20005;-91
2023/10/17 11:25:27;;;;;;;0.00;0.00;;;12.20;99.90;;;;;;6201323;23;20012;-91
2023/10/17 11:27:55;;;;;;;0.00;0.00;;;;;;;;;;6202444;23;20005;-91
2023/10/17 11:30:32;;;;;;;0.00;0.00;;;12.20;99.90;;;;;;6201764;23;20008;-91
2023/10/17 11:33:12;;;;;;;0.00;0.00;;;12.10;99.90;;;;;;6202434;23;20004;-90
2023/10/17 11:35:51;;;;;;;0.00;0.00;;;12.10;99.90;;;;;;6203420;23;20008;-91
2023/10/17 11:38:33;;;;;;;0.00;0.00;;;12.10;99.90;;;;;;6203193;23;20011;-91
2023/10/17 11:41:00;;;;;;;0.00;0.00;;;12.10;99.90;;;;;;6201954;23;20068;-92
2023/10/17 11:43:28;;;;;;;0.00;0.00;;;;;;;;;;6203068;23;20008;-91
2023/10/17 11:45:56;;;;;;;0.00;0.00;;;;;;;;;;6202489;23;20010;-90
2023/10/17 11:48:28;;;;;;;0.00;0.00;;;12.00;99.90;;;;;;6202063;23;20012;-91
2023/10/17 11:51:13;;;;;;;0.00;0.00;;;12.00;99.90;;;;;;6203154;23;20007;-91
2023/10/17 11:54:08;;;;;;;0.00;0.00;;;12.20;99.90;;;;;;6203510;23;20058;-91
2023/10/17 11:56:36;;;;;;;0.00;0.00;;;12.20;99.90;;;;;;6203731;23;20064;-91
2023/10/17 11:59:07;;;;;;;0.00;0.00;;;12.10;99.90;;;;;;6203847;23;20078;-91
2023/10/17 12:01:33;;;;;;;0.00;0.00;;;;;;;;;;6203921;23;20020;-91
2023/10/17 12:04:05;;;;;;;0.00;0.00;;;12.10;99.90;;;;;;6203811;23;20001;-92
2023/10/17 12:06:31;;;;;;;0.00;0.00;;;;;;;;;;6203982;23;20012;-92
2023/10/17 12:08:56;;;;;;;0.00;0.00;;;;;;;;;;6203709;23;20011;-91
2023/10/17 12:11:24;;;;;;;0.00;0.00;;;;;;;;;;6204419;23;20016;-92
2023/10/17 12:13:53;;;;;;;0.00;0.00;;;;;;;;;;6202979;23;20062;-90
2023/10/17 12:16:25;;;;;;;0.00;0.00;;;12.60;99.90;;;;;;6203560;23;20005;-92
2023/10/17 12:18:56;;;;;;;0.05;0.05;;;;;;;;;;6202715;23;20316;-90
2023/10/17 12:21:34;;;;;;;0.00;0.00;;;12.70;99.90;;;;;;6202275;23;20012;-92
2023/10/17 12:24:00;;;;;;;0.00;0.00;;;;;;;;;;6203484;23;20008;-91
2023/10/17 12:26:32;;;;;;;0.00;0.00;;;;;;;;;;6204285;23;20009;-92
2023/10/17 12:29:00;;;;;;;0.00;0.00;;;;;;;;;;6202211;23;20019;-91
2023/10/17 12:31:27;;;;;;;0.00;0.00;;;;;;;;;;6202280;23;20011;-91
2023/10/17 12:33:53;;;;;;;0.00;0.00;;;;;;;;;;6201412;23;20004;-92
2023/10/17 12:36:22;;;;;;;0.00;0.00;;;;;;;;;;6203426;23;20001;-91
2023/10/17 12:38:49;;;;;;;0.00;0.00;;;;;;;;;;6204459;23;20005;-89
2023/10/17 12:41:15;;;;;;;0.00;0.00;;;;;;;;;;6203752;23;20011;-91
2023/10/17 12:43:42;;;;;;;0.00;0.00;;;;;;;;;;6203729;23;20004;-91
2023/10/17 12:46:10;;;;;;;0.00;0.00;;;;;;;;;;6203427;23;20004;-91
2023/10/17 12:48:36;;;;;;;0.00;0.00;;;;;;;;;;6204164;23;20012;-91
2023/10/17 12:51:11;;;;;;;0.00;0.00;;;;;;;;;;6203777;23;20005;-91
2023/10/17 12:53:37;;;;;;;0.00;0.00;;;;;;;;;;6204762;23;19996;-89
2023/10/17 12:56:05;;;;;;;0.00;0.00;;;;;;;;;;6204047;23;20031;-90
2023/10/17 12:58:32;;;;;;;0.00;0.00;;;;;;;;;;6204031;23;20079;-91
2023/10/17 13:00:58;;;;;;;0.00;0.00;;;;;;;;;;6205238;23;20082;-90
2023/10/17 13:03:25;;;;;;;0.00;0.00;;;;;;;;;;6204817;23;20016;-90
2023/10/17 13:05:51;;;;;;;0.00;0.00;;;;;;;;;;6204447;23;20062;-90
2023/10/17 13:08:17;;;;;;;0.00;0.00;;;;;;;;;;6204453;23;20004;-91
2023/10/17 13:10:43;;;;;;;0.00;0.00;;;;;;;;;;6203729;23;20007;-90
2023/10/17 13:13:11;;;;;;;0.00;0.00;;;;;;;;;;6206047;23;20008;-89
2023/10/17 13:15:37;;;;;;;0.08;0.08;;;;;;;;;;6207512;23;20028;-92
2023/10/17 13:18:06;;;;;;;0.00;0.00;;;;;;;;;;6206587;23;20000;-90
2023/10/17 13:20:33;;;;;;;0.10;0.10;;;;;;;;;;6206125;23;20001;-88
2023/10/17 13:23:03;;;;;;;0.00;0.00;;;;;;;;;;6203764;23;20005;-92
2023/10/17 13:25:35;;;;;;;0.00;0.00;;;11.90;99.90;;;;;;6201344;23;20031;-91
2023/10/17 13:28:02;;;;;;;0.00;0.00;;;;;;;;;;6196254;23;20005;-92
2023/10/17 13:30:28;;;;;;;0.00;0.00;;;;;;;;;;6198741;23;20001;-90
2023/10/17 13:32:54;;;;;;;0.00;0.00;;;;;;;;;;6200685;23;20077;-91
2023/10/17 13:35:22;;;;;;;0.00;0.00;;;;;;;;;;6200783;23;20016;-91
2023/10/17 13:40:19;;;;;;;0.00;0.00;;;11.60;99.90;;;;;;6245984;23;20020;-84
2023/10/17 13:42:46;;;;;;;0.00;0.00;;;;;;;;;;6211935;23;20417;-84
2023/10/17 13:45:13;;;;;;;0.00;0.00;;;;;;;;;;6188579;23;20008;-84
2023/10/17 13:47:40;;;;;;;0.00;0.00;;;11.50;99.90;;;;;;6188202;23;20028;-84
2023/10/17 13:50:06;;;;;;;0.00;0.00;;;11.40;99.90;;;;;;6188486;23;20063;-84
2023/10/17 13:52:33;;;;;;;0.03;0.03;;;;;;;;;;6188582;23;20009;-85
2023/10/17 13:54:58;;;;;;;0.00;0.00;;;;;;;;;;6215111;23;20024;-83
2023/10/17 13:57:29;;;;;;;0.00;0.00;;;11.20;99.90;;;;;;6188086;23;20332;-83
2023/10/17 13:59:55;;;;;;;0.00;0.00;;;;;;;;;;6187925;23;20083;-84
2023/10/17 14:02:21;;;;;;;0.00;0.00;;;;;;;;;;6187966;23;20016;-84
2023/10/17 14:04:47;;;;;;;0.00;0.00;;;;;;;;;;6214771;23;20032;-84
2023/10/17 14:07:14;;;;;;;0.00;0.00;;;;;;;;;;6188156;23;20011;-84
2023/10/17 14:09:40;;;;;;;0.00;0.00;;;;;;;;;;6187621;23;20192;-85
2023/10/17 14:12:09;;;;;;;0.00;0.00;;;;;;;;;;6186691;23;20005;-83
2023/10/17 14:14:37;;;;;;;0.00;0.00;;;11.30;99.90;;;;;;6214419;23;20453;-84
2023/10/17 14:17:03;;;;;;;0.00;0.00;;;;;;;;;;6187446;23;19997;-84
2023/10/17 14:22:05;;;;;;;0.00;0.00;;;;;;;;;;6224749;23;20435;-84
2023/10/17 14:27:20;;;;;;;0.00;0.00;;;11.30;99.90;;;;;;6213933;23;20455;-85
2023/10/17 14:29:46;;;;;;;0.00;0.00;;;11.00;99.90;;;;;;6187437;23;20058;-84
2023/10/17 14:32:11;;;;;;;0.00;0.00;;;11.10;99.90;;;;;;6187586;23;20012;-84
2023/10/17 14:34:37;;;;;;;0.00;0.00;;;11.10;99.90;;;;;;6188271;23;20005;-84
2023/10/17 14:37:05;;;;;;;0.00;0.00;;;11.00;99.90;;;;;;6186548;23;20058;-83
2023/10/17 14:39:31;;;;;;;0.00;0.00;;;;;;;;;;6185643;23;20613;-84
2023/10/17 14:41:57;;;;;;;0.00;0.00;;;;;;;;;;6186416;23;20004;-84
2023/10/17 14:44:24;;;;;;;0.00;0.00;;;11.00;99.90;;;;;;6186622;23;20008;-84
2023/10/17 14:46:52;;;;;;;0.00;0.00;;;;;;;;;;6186704;23;20012;-84
2023/10/17 14:49:19;;;;;;;0.00;0.00;;;;;;;;;;6186671;23;20340;-83
2023/10/17 14:51:45;;;;;;;0.00;0.00;;;;;;;;;;6185144;23;20083;-83
2023/10/17 14:54:13;;;;;;;0.00;0.00;;;;;;;;;;6186094;23;20409;-85
2023/10/17 14:56:39;;;;;;;0.00;0.00;;;;;;;;;;6186255;23;20005;-83
2023/10/17 14:59:05;;;;;;;0.00;0.00;;;;;;;;;;6183409;23;20001;-84
2023/10/17 15:01:31;;;;;;;0.00;0.00;;;;;;;;;;6184902;23;20664;-85
2023/10/17 15:03:59;;;;;;;0.00;0.00;;;;;;;;;;6186490;23;20012;-84
2023/10/17 15:06:27;;;;;;;0.00;0.00;;;;;;;;;;6213436;23;20100;-83
2023/10/17 15:08:53;;;;;;;0.00;0.00;;;;;;;;;;6213131;23;20694;-83
2023/10/17 15:11:20;;;;;;;0.00;0.00;;;;;;;;;;6185269;23;20015;-84
2023/10/17 15:13:46;;;;;;;0.00;0.00;;;;;;;;;;6186774;23;20466;-85
2023/10/17 15:16:19;;;;;;;0.00;0.00;;;9.60;99.90;;;;;;6212695;23;20413;-83
2023/10/17 15:18:45;;;;;;;0.00;0.00;;;;;;;;;;6187881;23;20004;-84
2023/10/17 15:21:12;;;;;;;0.00;0.00;;;;;;;;;;6186257;23;20015;-83
2023/10/17 15:23:41;;;;;;;0.00;0.00;;;11.30;99.90;;;;;;6186672;23;20027;-84
2023/10/17 15:26:10;;;;;;;0.00;0.00;;;;;;;;;;6185927;23;20408;-83
2023/10/17 15:28:36;;;;;;;0.00;0.00;;;;;;;;;;6184407;23;20011;-83
2023/10/17 15:31:06;;;;;;;0.00;0.00;;;11.20;99.90;;;;;;6185499;23;20034;-84
2023/10/17 15:33:32;;;;;;;0.00;0.00;;;;;;;;;;6185920;23;20001;-83
2023/10/17 15:36:05;;;;;;;0.00;0.00;;;10.90;99.90;;;;;;6186540;23;20447;-85
2023/10/17 15:38:32;;;;;;;0.00;0.00;;;10.60;99.90;;;;;;6186405;23;20324;-84
2023/10/17 15:40:59;;;;;;;0.00;0.00;;;;;;;;;;6186531;23;20210;-85
2023/10/17 15:43:25;;;;;;;0.00;0.00;;;;;;;;;;6185966;23;20000;-84
2023/10/17 15:45:55;;;;;;;0.00;0.00;;;10.40;99.90;;;;;;6186527;23;20355;-83
2023/10/17 15:48:25;;;;;;;0.00;0.00;;;10.50;99.90;;;;;;6185918;23;20019;-84
2023/10/17 15:50:51;;;;;;;;;;;10.50;99.90;;;;;;6186003;23;20013;-82
2023/10/17 15:53:17;;;;;;;0.00;0.00;;;;;;;;;;6185386;23;19931;-85
2023/10/17 15:55:53;;;;;;;0.00;0.00;;;10.20;99.90;;;;;;6186580;23;20431;-84
2023/10/17 15:58:21;;;;;;;0.00;0.00;;;10.00;99.90;;;;;;6186904;23;20055;-84
2023/10/17 16:00:47;;;;;;;0.00;0.00;;;9.90;99.90;;;;;;6186508;23;20432;-83
2023/10/17 16:03:15;;;;;;;0.00;0.00;;;9.80;99.90;;;;;;6185887;23;20004;-84
2023/10/17 16:05:41;;;;;;;0.00;0.00;;;;;;;;;;6186956;23;20020;-83
2023/10/17 16:08:10;;;;;;;0.00;0.00;;;;;;;;;;6186012;23;20005;-83
2023/10/17 16:10:36;;;;;;;0.00;0.00;;;;;;;;;;6185921;23;20016;-84
2023/10/17 16:13:02;;;;;;;0.00;0.00;;;;;;;;;;6186306;23;20000;-84
2023/10/17 16:15:28;;;;;;;0.00;0.00;;;;;;;;;;6186332;23;19997;-83
2023/10/17 16:17:54;;;;;;;0.00;0.00;;;;;;;;;;6186444;23;20020;-83
2023/10/17 16:20:20;;;;;;;0.00;0.00;;;;;;;;;;6186006;23;20432;-83
2023/10/17 16:22:47;;;;;;;0.00;0.00;;;;;;;;;;6186393;23;20417;-84
2023/10/17 16:25:14;;;;;;;0.00;0.00;;;;;;;;;;6185642;23;20029;-83
2023/10/17 16:27:40;;;;;;;0.00;0.00;;;;;;;;;;6185400;23;20045;-83
2023/10/17 16:30:10;;;;;;;0.10;0.10;;;9.30;99.90;;;;;;6185858;23;20584;-83
2023/10/17 16:32:36;;;;;;;0.00;0.00;;;;;;;;;;6186300;23;20000;-83
2023/10/17 16:35:04;;;;;;;0.00;0.00;;;9.20;99.90;;;;;;6186230;23;20059;-84
2023/10/17 16:37:32;;;;;;;0.10;0.10;;;;;;;;;;6184787;23;20004;-83
2023/10/17 16:39:58;;;;;;;0.00;0.00;;;;;;;;;;6185001;23;20062;-86
2023/10/17 16:42:24;;;;;;;0.10;0.10;;;;;;;;;;6184316;23;20028;-83
2023/10/17 16:44:50;;;;;;;0.00;0.00;;;;;;;;;;6185001;23;20008;-82
2023/10/17 16:47:16;;;;;;;0.10;0.10;;;;;;;;;;6183891;23;20005;-84
2023/10/17 16:49:44;;;;;;;0.10;0.10;;;;;;;;;;6212242;23;20004;-83
2023/10/17 16:52:10;;;;;;;0.03;0.03;;;;;;;;;;6184311;23;20058;-84
2023/10/17 16:54:40;;;;;;;0.00;0.00;;;;;;;;;;6189215;23;20001;-84
2023/10/17 16:57:05;;;;;;;;;;;8.70;99.90;;;;;;6190171;23;20120;-83
2023/10/17 16:59:35;;;;;;;0.00;0.00;;;;;;;;;;6189384;23;19923;-85
2023/10/17 17:02:00;;;;;;;0.00;0.00;;;;;;;;;;6188718;23;20459;-85
2023/10/17 17:04:26;;;;;;;0.05;0.05;;;;;;;;;;6187468;23;20009;-84
2023/10/17 17:06:52;;;;;;;0.08;0.08;;;;;;;;;;6188875;23;20416;-84
2023/10/17 17:09:22;;;;;;;0.00;0.00;;;;;;;;;;6188374;23;20009;-84
2023/10/17 17:11:48;;;;;;;0.10;0.10;;;;;;;;;;6188749;23;20435;-84
2023/10/17 17:14:15;;;;;;;0.00;0.00;;;;;;;;;;6188710;23;19997;-82
2023/10/17 17:16:42;;;;;;;0.10;0.10;;;;;;;;;;6188650;23;20088;-84
2023/10/17 17:19:08;;;;;;;0.10;0.10;;;;;;;;;;6189286;23;20032;-83
2023/10/17 17:21:34;;;;;;;0.10;0.10;;;;;;;;;;6188213;23;20008;-84
2023/10/17 17:24:07;;;;;;;0.00;0.00;;;;;;;;;;6214924;23;20004;-85
2023/10/17 17:26:33;;;;;;;0.10;0.10;;;;;;;;;;6187718;23;20028;-85
2023/10/17 17:28:59;;;;;;;0.00;0.00;;;;;;;;;;6188776;23;20043;-82
2023/10/17 17:31:25;;;;;;;0.10;0.10;;;;;;;;;;6188411;23;20013;-83
2023/10/17 17:33:51;;;;;;;0.00;0.00;;;;;;;;;;6189191;23;20016;-85
2023/10/17 17:36:18;;;;;;;0.10;0.10;;;;;;;;;;6189008;23;20480;-84
2023/10/17 17:38:44;;;;;;;0.10;0.10;;;7.70;99.90;;;;;;6188915;23;20075;-84
2023/10/17 17:41:13;;;;;;;0.10;0.10;;;7.60;99.90;;;;;;6189359;23;20654;-84
2023/10/17 17:43:39;;;;;;;0.10;0.10;;;;;;;;;;6188999;23;20001;-84
2023/10/17 17:46:05;;;;;;;0.10;0.10;;;;;;;;;;6189363;23;20008;-85